createdAt,value
2018-05-13T08:59:42.901Z,971.29
2018-05-13T09:00:42.705Z,971.26
2018-05-13T09:02:46.589Z,971.25
2018-05-13T09:03:46.461Z,971.24
2018-05-13T09:05:50.351Z,971.25
2018-05-13T09:06:50.210Z,971.18
2018-05-13T09:08:54.047Z,971.21
2018-05-13T09:09:53.970Z,971.23
2018-05-13T09:10:53.900Z,971.24
2018-05-13T09:11:53.826Z,971.22
2018-05-13T09:12:53.758Z,971.21
2018-05-13T09:13:53.692Z,971.23
2018-05-13T09:14:53.614Z,971.21
2018-05-13T09:15:53.588Z,971.18
2018-05-13T09:16:53.469Z,971.18
2018-05-13T09:17:53.409Z,971.18
2018-05-13T09:18:53.327Z,971.14
2018-05-13T09:19:53.257Z,971.12
2018-05-13T09:20:53.219Z,971.11
2018-05-13T09:21:53.123Z,971.15
2018-05-13T09:22:53.044Z,971.12
2018-05-13T09:23:52.971Z,971.12
2018-05-13T09:24:52.904Z,971.08
2018-05-13T09:25:52.836Z,971.04
2018-05-13T09:26:52.759Z,971.06
2018-05-13T09:27:52.692Z,971.03
2018-05-13T09:28:52.635Z,971.07
2018-05-13T09:29:52.549Z,971.05
2018-05-13T09:30:52.477Z,971.06
2018-05-13T09:31:52.411Z,971.02
2018-05-13T09:32:52.339Z,971.03
2018-05-13T09:33:52.268Z,971.06
2018-05-13T09:34:52.195Z,971.03
2018-05-13T09:35:52.138Z,970.99
2018-05-13T09:36:52.060Z,970.99
2018-05-13T09:37:51.988Z,971.04
2018-05-13T09:38:51.926Z,970.97
2018-05-13T09:39:51.847Z,970.97
2018-05-13T09:40:51.776Z,970.93
2018-05-13T09:41:51.707Z,970.94
2018-05-13T09:42:51.634Z,970.92
2018-05-13T09:43:51.566Z,970.90
2018-05-13T09:44:51.495Z,970.91
2018-05-13T09:45:51.459Z,970.90
2018-05-13T09:46:51.361Z,970.90
2018-05-13T09:47:51.286Z,970.90
2018-05-13T09:48:51.219Z,970.86
2018-05-13T09:49:51.161Z,970.87
2018-05-13T09:50:51.079Z,970.91
2018-05-13T09:51:51.011Z,970.92
2018-05-13T09:52:50.936Z,970.88
2018-05-13T09:53:50.867Z,970.89
2018-05-13T09:54:50.804Z,970.87
2018-05-13T09:55:50.728Z,970.91
2018-05-13T09:56:50.661Z,970.87
2018-05-13T09:57:50.604Z,970.79
2018-05-13T09:58:50.517Z,970.83
2018-05-13T09:59:50.449Z,970.78
2018-05-13T10:00:50.392Z,970.78
2018-05-13T10:01:50.309Z,970.78
2018-05-13T10:02:50.238Z,970.80
2018-05-13T10:03:50.185Z,970.81
2018-05-13T10:04:50.099Z,970.81
2018-05-13T10:05:50.033Z,970.87
2018-05-13T10:06:49.959Z,970.84
2018-05-13T10:07:49.891Z,970.83
2018-05-13T10:08:49.819Z,970.82
2018-05-13T10:09:49.752Z,970.83
2018-05-13T10:10:49.681Z,970.76
2018-05-13T10:11:49.612Z,970.71
2018-05-13T10:12:49.541Z,970.72
2018-05-13T10:13:49.496Z,970.75
2018-05-13T10:14:49.406Z,970.73
2018-05-13T10:15:49.337Z,970.73
2018-05-13T10:16:49.263Z,970.70
2018-05-13T10:17:49.195Z,970.67
2018-05-13T10:18:49.127Z,970.69
2018-05-13T10:19:49.055Z,970.63
2018-05-13T10:20:48.986Z,970.65
2018-05-13T10:21:48.917Z,970.66
2018-05-13T10:22:48.846Z,970.63
2018-05-13T10:23:48.778Z,970.62
2018-05-13T10:24:48.711Z,970.68
2018-05-13T10:25:48.662Z,970.64
2018-05-13T10:26:48.570Z,970.69
2018-05-13T10:27:48.502Z,970.63
2018-05-13T10:28:48.432Z,970.64
2018-05-13T10:29:48.393Z,970.60
2018-05-13T10:30:48.425Z,970.67
2018-05-13T10:31:48.227Z,970.62
2018-05-13T10:32:48.157Z,970.60
2018-05-13T10:33:48.088Z,970.63
2018-05-13T10:34:48.017Z,970.63
2018-05-13T10:35:47.948Z,970.58
2018-05-13T10:36:47.879Z,970.62
2018-05-13T10:37:47.810Z,970.56
2018-05-13T10:38:47.741Z,970.52
2018-05-13T10:39:47.673Z,970.53
2018-05-13T10:40:47.604Z,970.54
2018-05-13T10:41:47.535Z,970.62
2018-05-13T10:42:47.469Z,970.62
2018-05-13T10:43:47.398Z,970.59
2018-05-13T10:44:47.330Z,970.54
2018-05-13T10:45:47.261Z,970.53
2018-05-13T10:46:47.194Z,970.55
2018-05-13T10:47:47.128Z,970.57
2018-05-13T10:48:47.054Z,970.52
2018-05-13T10:49:46.989Z,970.53
2018-05-13T10:50:46.929Z,970.49
2018-05-13T10:51:46.849Z,970.48
2018-05-13T10:52:46.783Z,970.49
2018-05-13T10:53:46.714Z,970.49
2018-05-13T10:54:46.651Z,970.40
2018-05-13T10:55:46.575Z,970.40
2018-05-13T10:56:46.512Z,970.36
2018-05-13T10:57:46.464Z,970.39
2018-05-13T10:58:46.370Z,970.41
2018-05-13T10:59:46.302Z,970.40
2018-05-13T11:00:46.243Z,970.38
2018-05-13T11:01:46.167Z,970.43
2018-05-13T11:02:46.099Z,970.40
2018-05-13T11:03:46.029Z,970.38
2018-05-13T11:04:46.069Z,970.40
2018-05-13T11:05:45.896Z,970.39
2018-05-13T11:06:45.842Z,970.33
2018-05-13T11:07:45.759Z,970.31
2018-05-13T11:08:45.689Z,970.29
2018-05-13T11:09:45.621Z,970.29
2018-05-13T11:10:45.550Z,970.29
2018-05-13T11:11:45.483Z,970.27
2018-05-13T11:12:45.416Z,970.23
2018-05-13T11:13:45.348Z,970.20
2018-05-13T11:14:45.281Z,970.23
2018-05-13T11:15:45.217Z,970.22
2018-05-13T11:16:45.146Z,970.22
2018-05-13T11:17:45.081Z,970.19
2018-05-13T11:18:45.008Z,970.19
2018-05-13T11:19:44.945Z,970.16
2018-05-13T11:20:44.898Z,970.19
2018-05-13T11:21:44.804Z,970.16
2018-05-13T11:22:44.737Z,970.13
2018-05-13T11:23:44.690Z,970.14
2018-05-13T11:24:44.602Z,970.14
2018-05-13T11:25:44.536Z,970.13
2018-05-13T11:26:44.486Z,970.11
2018-05-13T11:27:44.401Z,970.10
2018-05-13T11:28:44.333Z,970.07
2018-05-13T11:29:44.279Z,970.07
2018-05-13T11:30:44.201Z,970.07
2018-05-13T11:31:44.131Z,970.08
2018-05-13T11:32:44.063Z,970.01
2018-05-13T11:33:44.083Z,970.00
2018-05-13T11:34:43.925Z,969.98
2018-05-13T11:35:43.862Z,969.96
2018-05-13T11:36:43.795Z,969.92
2018-05-13T11:37:43.727Z,969.92
2018-05-13T11:38:43.655Z,969.97
2018-05-13T11:39:43.592Z,969.92
2018-05-13T11:40:43.521Z,969.95
2018-05-13T11:41:43.458Z,969.94
2018-05-13T11:42:43.387Z,969.88
2018-05-13T11:43:43.321Z,969.90
2018-05-13T11:44:43.251Z,969.88
2018-05-13T11:45:43.187Z,969.87
2018-05-13T11:46:43.164Z,969.82
2018-05-13T11:47:43.051Z,969.82
2018-05-13T11:48:42.987Z,969.80
2018-05-13T11:49:42.921Z,969.80
2018-05-13T11:50:42.853Z,969.77
2018-05-13T11:51:42.811Z,969.73
2018-05-13T11:52:42.717Z,969.73
2018-05-13T11:53:43.644Z,969.74
2018-05-13T11:54:42.584Z,969.71
2018-05-13T11:55:42.517Z,969.72
2018-05-13T11:56:42.456Z,969.71
2018-05-13T11:57:42.382Z,969.67
2018-05-13T11:58:42.352Z,969.67
2018-05-13T11:59:42.254Z,969.63
2018-05-13T12:00:42.183Z,969.60
2018-05-13T12:01:42.117Z,969.57
2018-05-13T12:02:42.049Z,969.59
2018-05-13T12:03:41.983Z,969.61
2018-05-13T12:04:41.915Z,969.58
2018-05-13T12:05:41.851Z,969.58
2018-05-13T12:06:41.784Z,969.56
2018-05-13T12:07:41.715Z,969.55
2018-05-13T12:08:41.651Z,969.47
2018-05-13T12:09:41.587Z,969.52
2018-05-13T12:10:41.517Z,969.48
2018-05-13T12:11:41.450Z,969.47
2018-05-13T12:12:41.390Z,969.43
2018-05-13T12:13:41.331Z,969.50
2018-05-13T12:14:41.253Z,969.40
2018-05-13T12:15:41.185Z,969.38
2018-05-13T12:16:41.186Z,969.39
2018-05-13T12:17:41.053Z,969.37
2018-05-13T12:18:40.984Z,969.40
2018-05-13T12:19:40.917Z,969.34
2018-05-13T12:20:40.853Z,969.24
2018-05-13T12:21:40.787Z,969.23
2018-05-13T12:22:40.745Z,969.22
2018-05-13T12:23:40.653Z,969.22
2018-05-13T12:24:40.587Z,969.23
2018-05-13T12:25:40.521Z,969.19
2018-05-13T12:26:40.455Z,969.20
2018-05-13T12:27:40.393Z,969.19
2018-05-13T12:28:40.322Z,969.18
2018-05-13T12:29:40.259Z,969.16
2018-05-13T12:30:40.201Z,969.14
2018-05-13T12:31:40.123Z,969.12
2018-05-13T12:32:40.061Z,969.15
2018-05-13T12:33:39.995Z,969.13
2018-05-13T12:34:39.945Z,969.11
2018-05-13T12:35:39.858Z,969.09
2018-05-13T12:36:39.796Z,969.05
2018-05-13T12:37:39.726Z,969.08
2018-05-13T12:38:39.660Z,969.09
2018-05-13T12:39:39.593Z,969.13
2018-05-13T12:40:39.529Z,969.10
2018-05-13T12:41:39.465Z,969.04
2018-05-13T12:42:39.396Z,969.06
2018-05-13T12:43:39.333Z,969.02
2018-05-13T12:44:39.265Z,969.06
2018-05-13T12:45:39.215Z,969.10
2018-05-13T12:46:39.133Z,969.12
2018-05-13T12:47:39.072Z,969.04
2018-05-13T12:48:39.002Z,969.00
2018-05-13T12:49:38.940Z,969.02
2018-05-13T12:50:38.872Z,969.00
2018-05-13T12:51:38.809Z,968.98
2018-05-13T12:52:38.743Z,968.88
2018-05-13T12:53:38.684Z,968.86
2018-05-13T12:54:38.621Z,968.87
2018-05-13T12:55:38.575Z,968.82
2018-05-13T12:56:38.487Z,968.84
2018-05-13T12:57:38.423Z,968.78
2018-05-13T12:58:38.361Z,968.78
2018-05-13T12:59:38.295Z,968.77
2018-05-13T13:00:38.231Z,968.71
2018-05-13T13:01:38.170Z,968.69
2018-05-13T13:02:38.106Z,968.67
2018-05-13T13:03:38.043Z,968.65
2018-05-13T13:04:37.983Z,968.67
2018-05-13T13:05:37.921Z,968.74
2018-05-13T13:06:37.874Z,968.70
2018-05-13T13:07:37.842Z,968.62
2018-05-13T13:08:37.733Z,968.62
2018-05-13T13:09:37.674Z,968.63
2018-05-13T13:10:37.610Z,968.60
2018-05-13T13:11:37.545Z,968.63
2018-05-13T13:12:37.488Z,968.60
2018-05-13T13:13:37.432Z,968.63
2018-05-13T13:14:37.363Z,968.64
2018-05-13T13:15:37.300Z,968.65
2018-05-13T13:16:37.245Z,968.69
2018-05-13T13:17:37.174Z,968.70
2018-05-13T13:18:37.113Z,968.72
2018-05-13T13:19:37.048Z,968.68
2018-05-13T13:20:36.984Z,968.66
2018-05-13T13:21:36.925Z,968.65
2018-05-13T13:22:36.875Z,968.62
2018-05-13T13:23:36.818Z,968.59
2018-05-13T13:24:36.737Z,968.60
2018-05-13T13:25:36.675Z,968.54
2018-05-13T13:26:36.609Z,968.52
2018-05-13T13:27:36.549Z,968.55
2018-05-13T13:28:36.486Z,968.55
2018-05-13T13:29:36.422Z,968.52
2018-05-13T13:30:36.433Z,968.54
2018-05-13T13:31:36.318Z,968.55
2018-05-13T13:32:36.232Z,968.50
2018-05-13T13:33:36.173Z,968.57
2018-05-13T13:34:36.109Z,968.54
2018-05-13T13:35:36.050Z,968.56
2018-05-13T13:36:36.038Z,968.54
2018-05-13T13:37:35.916Z,968.51
2018-05-13T13:38:35.859Z,968.48
2018-05-13T13:39:35.798Z,968.42
2018-05-13T13:40:35.724Z,968.42
2018-05-13T13:41:35.664Z,968.40
2018-05-13T13:42:35.598Z,968.37
2018-05-13T13:43:35.534Z,968.36
2018-05-13T13:44:35.472Z,968.38
2018-05-13T13:45:35.407Z,968.40
2018-05-13T13:46:35.344Z,968.40
2018-05-13T13:47:35.280Z,968.32
2018-05-13T13:48:35.215Z,968.37
2018-05-13T13:49:35.154Z,968.37
2018-05-13T13:50:35.086Z,968.43
2018-05-13T13:51:35.048Z,968.41
2018-05-13T13:52:34.974Z,968.39
2018-05-13T13:53:34.953Z,968.51
2018-05-13T13:54:34.831Z,968.52
2018-05-13T13:55:34.782Z,968.61
2018-05-13T13:56:34.699Z,968.74
2018-05-13T13:57:34.635Z,968.67
2018-05-13T13:58:34.569Z,968.59
2018-05-13T13:59:34.583Z,968.59
2018-05-13T14:00:34.442Z,968.58
2018-05-13T14:01:34.387Z,968.56
2018-05-13T14:02:34.311Z,968.46
2018-05-13T14:03:34.246Z,968.46
2018-05-13T14:04:34.190Z,968.54
2018-05-13T14:05:34.117Z,968.59
2018-05-13T14:06:34.051Z,968.60
2018-05-13T14:07:33.985Z,968.59
2018-05-13T14:08:33.922Z,968.64
2018-05-13T14:09:33.854Z,968.63
2018-05-13T14:10:33.788Z,968.61
2018-05-13T14:11:33.734Z,968.64
2018-05-13T14:12:33.657Z,968.61
2018-05-13T14:13:33.589Z,968.64
2018-05-13T14:14:33.524Z,968.64
2018-05-13T14:15:33.457Z,968.60
2018-05-13T14:16:33.394Z,968.63
2018-05-13T14:17:33.324Z,968.66
2018-05-13T14:18:33.257Z,968.58
2018-05-13T14:19:33.193Z,968.67
2018-05-13T14:20:33.161Z,968.64
2018-05-13T14:21:33.069Z,968.60
2018-05-13T14:22:32.992Z,968.64
2018-05-13T14:23:32.926Z,968.69
2018-05-13T14:24:32.878Z,968.65
2018-05-13T14:25:32.804Z,968.65
2018-05-13T14:26:32.723Z,968.71
2018-05-13T14:27:32.662Z,968.68
2018-05-13T14:28:32.591Z,968.68
2018-05-13T14:29:32.523Z,968.67
2018-05-13T14:30:32.460Z,968.64
2018-05-13T14:31:32.388Z,968.66
2018-05-13T14:32:32.337Z,968.64
2018-05-13T14:33:32.255Z,968.66
2018-05-13T14:34:32.192Z,968.67
2018-05-13T14:35:32.118Z,968.72
2018-05-13T14:36:32.063Z,968.72
2018-05-13T14:37:31.986Z,968.63
2018-05-13T14:38:31.915Z,968.69
2018-05-13T14:39:31.848Z,968.69
2018-05-13T14:40:31.792Z,968.68
2018-05-13T14:41:31.711Z,968.78
2018-05-13T14:42:31.647Z,968.70
2018-05-13T14:43:31.590Z,968.73
2018-05-13T14:44:31.509Z,968.71
2018-05-13T14:45:31.530Z,968.70
2018-05-13T14:46:31.406Z,968.74
2018-05-13T14:47:31.321Z,968.78
2018-05-13T14:48:31.238Z,968.77
2018-05-13T14:49:31.171Z,968.78
2018-05-13T14:50:31.102Z,968.79
2018-05-13T14:51:31.043Z,968.75
2018-05-13T14:52:30.966Z,968.72
2018-05-13T14:53:30.901Z,968.79
2018-05-13T14:54:30.837Z,968.77
2018-05-13T14:55:30.774Z,968.75
2018-05-13T14:56:30.699Z,968.78
2018-05-13T14:57:30.626Z,968.66
2018-05-13T14:58:30.579Z,968.68
2018-05-13T14:59:30.494Z,968.66
2018-05-13T15:00:30.423Z,968.74
2018-05-13T15:01:30.366Z,968.70
2018-05-13T15:02:30.295Z,968.72
2018-05-13T15:03:30.219Z,968.71
2018-05-13T15:04:30.169Z,968.72
2018-05-13T15:05:30.266Z,968.71
2018-05-13T15:06:30.063Z,968.73
2018-05-13T15:07:29.947Z,968.69
2018-05-13T15:08:29.881Z,968.71
2018-05-13T15:09:29.811Z,968.73
2018-05-13T15:10:29.776Z,968.76
2018-05-13T15:11:29.684Z,968.75
2018-05-13T15:12:29.610Z,968.67
2018-05-13T15:13:29.554Z,968.76
2018-05-13T15:14:29.471Z,968.75
2018-05-13T15:15:29.426Z,968.71
2018-05-13T15:16:29.340Z,968.70
2018-05-13T15:17:29.265Z,968.71
2018-05-13T15:18:29.196Z,968.68
2018-05-13T15:19:29.135Z,968.67
2018-05-13T15:20:29.060Z,968.73
2018-05-13T15:21:28.991Z,968.69
2018-05-13T15:22:29.002Z,968.75
2018-05-13T15:23:28.866Z,968.71
2018-05-13T15:24:28.805Z,968.69
2018-05-13T15:25:28.720Z,968.66
2018-05-13T15:26:28.656Z,968.59
2018-05-13T15:27:28.581Z,968.60
2018-05-13T15:28:28.518Z,968.62
2018-05-13T15:29:28.460Z,968.61
2018-05-13T15:30:28.376Z,968.57
2018-05-13T15:31:28.309Z,968.56
2018-05-13T15:32:28.239Z,968.56
2018-05-13T15:33:28.188Z,968.51
2018-05-13T15:34:28.102Z,968.52
2018-05-13T15:35:28.053Z,968.51
2018-05-13T15:36:27.973Z,968.52
2018-05-13T15:37:27.916Z,968.48
2018-05-13T15:38:27.827Z,968.47
2018-05-13T15:39:27.848Z,968.44
2018-05-13T15:40:27.703Z,968.47
2018-05-13T15:41:27.618Z,968.51
2018-05-13T15:42:27.568Z,968.46
2018-05-13T15:43:27.529Z,968.45
2018-05-13T15:44:27.488Z,968.47
2018-05-13T15:45:27.375Z,968.45
2018-05-13T15:46:27.294Z,968.41
2018-05-13T15:47:27.205Z,968.41
2018-05-13T15:48:27.137Z,968.41
2018-05-13T15:49:27.067Z,968.39
2018-05-13T15:50:26.997Z,968.38
2018-05-13T15:51:26.928Z,968.35
2018-05-13T15:52:26.876Z,968.30
2018-05-13T15:53:26.789Z,968.30
2018-05-13T15:54:26.719Z,968.27
2018-05-13T15:55:26.653Z,968.24
2018-05-13T15:56:26.591Z,968.26
2018-05-13T15:57:26.521Z,968.23
2018-05-13T15:58:26.442Z,968.19
2018-05-13T15:59:26.374Z,968.16
2018-05-13T16:00:26.311Z,968.13
2018-05-13T16:01:26.235Z,968.09
2018-05-13T16:02:26.169Z,968.04
2018-05-13T16:03:26.104Z,968.00
2018-05-13T16:04:26.033Z,967.98
2018-05-13T16:05:25.965Z,967.96
2018-05-13T16:06:25.901Z,967.89
2018-05-13T16:07:25.827Z,967.86
2018-05-13T16:08:25.752Z,967.82
2018-05-13T16:09:25.696Z,967.79
2018-05-13T16:10:25.611Z,967.72
2018-05-13T16:11:25.544Z,967.68
2018-05-13T16:12:25.476Z,967.75
2018-05-13T16:13:25.405Z,967.78
2018-05-13T16:14:25.336Z,967.78
2018-05-13T16:15:25.268Z,967.72
2018-05-13T16:16:25.207Z,967.70
2018-05-13T16:17:25.128Z,967.67
2018-05-13T16:18:25.059Z,967.68
2018-05-13T16:19:24.990Z,967.67
2018-05-13T16:20:24.924Z,967.67
2018-05-13T16:21:24.855Z,967.67
2018-05-13T16:22:24.799Z,967.57
2018-05-13T16:23:24.721Z,967.66
2018-05-13T16:24:24.658Z,967.63
2018-05-13T16:25:24.590Z,967.58
2018-05-13T16:26:24.523Z,967.57
2018-05-13T16:27:24.456Z,967.57
2018-05-13T16:28:24.390Z,967.54
2018-05-13T16:29:24.336Z,967.51
2018-05-13T16:30:24.386Z,967.51
2018-05-13T16:31:24.196Z,967.50
2018-05-13T16:32:24.130Z,967.52
2018-05-13T16:33:24.072Z,967.50
2018-05-13T16:34:24.000Z,967.52
2018-05-13T16:35:24.017Z,967.46
2018-05-13T16:36:23.874Z,967.47
2018-05-13T16:37:23.817Z,967.46
2018-05-13T16:38:23.799Z,967.44
2018-05-13T16:39:23.683Z,967.42
2018-05-13T16:40:23.621Z,967.40
2018-05-13T16:41:23.557Z,967.39
2018-05-13T16:42:23.495Z,967.39
2018-05-13T16:43:23.444Z,967.35
2018-05-13T16:44:23.369Z,967.37
2018-05-13T16:45:23.306Z,967.35
2018-05-13T16:46:23.285Z,967.36
2018-05-13T16:47:23.186Z,967.36
2018-05-13T16:48:23.125Z,967.34
2018-05-13T16:49:23.068Z,967.37
2018-05-13T16:50:22.998Z,967.31
2018-05-13T16:51:22.936Z,967.30
2018-05-13T16:52:22.877Z,967.30
2018-05-13T16:53:22.813Z,967.33
2018-05-13T16:54:22.751Z,967.30
2018-05-13T16:55:22.699Z,967.29
2018-05-13T16:56:22.629Z,967.29
2018-05-13T16:57:22.564Z,967.27
2018-05-13T16:58:22.503Z,967.34
2018-05-13T16:59:22.519Z,967.32
2018-05-13T17:00:22.381Z,967.28
2018-05-13T17:01:22.320Z,967.28
2018-05-13T17:02:22.283Z,967.28
2018-05-13T17:03:22.198Z,967.29
2018-05-13T17:04:22.143Z,967.28
2018-05-13T17:05:22.079Z,967.30
2018-05-13T17:06:22.014Z,967.34
2018-05-13T17:07:21.952Z,967.32
2018-05-13T17:08:21.896Z,967.28
2018-05-13T17:09:21.874Z,967.31
2018-05-13T17:10:21.766Z,967.40
2018-05-13T17:11:21.707Z,967.39
2018-05-13T17:12:21.645Z,967.36
2018-05-13T17:13:21.590Z,967.29
2018-05-13T17:14:21.520Z,967.26
2018-05-13T17:15:21.460Z,967.31
2018-05-13T17:16:21.405Z,967.28
2018-05-13T17:17:21.346Z,967.35
2018-05-13T17:18:21.277Z,967.36
2018-05-13T17:19:21.209Z,967.32
2018-05-13T17:20:21.144Z,967.33
2018-05-13T17:21:21.082Z,967.31
2018-05-13T17:22:21.035Z,967.31
2018-05-13T17:23:20.955Z,967.31
2018-05-13T17:24:20.893Z,967.33
2018-05-13T17:25:20.825Z,967.29
2018-05-13T17:26:20.763Z,967.31
2018-05-13T17:27:20.700Z,967.29
2018-05-13T17:28:20.706Z,967.37
2018-05-13T17:29:20.570Z,967.31
2018-05-13T17:30:20.504Z,967.26
2018-05-13T17:31:20.439Z,967.32
2018-05-13T17:32:20.378Z,967.30
2018-05-13T17:33:20.308Z,967.33
2018-05-13T17:34:20.248Z,967.33
2018-05-13T17:35:20.178Z,967.32
2018-05-13T17:36:20.135Z,967.31
2018-05-13T17:37:20.075Z,967.32
2018-05-13T17:38:19.982Z,967.35
2018-05-13T17:39:19.961Z,967.34
2018-05-13T17:40:19.852Z,967.33
2018-05-13T17:41:19.850Z,967.36
2018-05-13T17:42:19.719Z,967.37
2018-05-13T17:43:19.651Z,967.43
2018-05-13T17:44:19.581Z,967.42
2018-05-13T17:45:19.515Z,967.37
2018-05-13T17:46:19.449Z,967.43
2018-05-13T17:47:19.379Z,967.43
2018-05-13T17:48:19.325Z,967.45
2018-05-13T17:49:19.250Z,967.44
2018-05-13T17:50:19.181Z,967.46
2018-05-13T17:51:19.114Z,967.49
2018-05-13T17:52:19.048Z,967.52
2018-05-13T17:53:18.980Z,967.51
2018-05-13T17:54:18.921Z,967.53
2018-05-13T17:55:18.844Z,967.54
2018-05-13T17:56:18.783Z,967.49
2018-05-13T17:57:18.738Z,967.53
2018-05-13T17:58:18.642Z,967.56
2018-05-13T17:59:18.575Z,967.52
2018-05-13T18:00:18.566Z,967.54
2018-05-13T18:01:18.442Z,967.53
2018-05-13T18:02:18.451Z,967.50
2018-05-13T18:03:18.489Z,967.50
2018-05-13T18:04:18.235Z,967.48
2018-05-13T18:05:18.168Z,967.47
2018-05-13T18:06:18.105Z,967.48
2018-05-13T18:07:18.031Z,967.48
2018-05-13T18:08:17.961Z,967.46
2018-05-13T18:09:17.895Z,967.48
2018-05-13T18:10:17.828Z,967.45
2018-05-13T18:11:17.762Z,967.47
2018-05-13T18:12:17.804Z,967.44
2018-05-13T18:13:17.621Z,967.46
2018-05-13T18:14:17.558Z,967.43
2018-05-13T18:15:17.488Z,967.45
2018-05-13T18:16:17.417Z,967.40
2018-05-13T18:17:17.346Z,967.38
2018-05-13T18:18:17.278Z,967.35
2018-05-13T18:19:17.216Z,967.39
2018-05-13T18:20:17.141Z,967.40
2018-05-13T18:21:17.074Z,967.42
2018-05-13T18:22:17.003Z,967.42
2018-05-13T18:23:16.934Z,967.44
2018-05-13T18:24:16.867Z,967.45
2018-05-13T18:25:16.796Z,967.48
2018-05-13T18:26:16.729Z,967.47
2018-05-13T18:27:16.658Z,967.46
2018-05-13T18:28:16.587Z,967.51
2018-05-13T18:29:16.518Z,967.52
2018-05-13T18:30:16.448Z,967.46
2018-05-13T18:31:16.389Z,967.47
2018-05-13T18:32:16.324Z,967.46
2018-05-13T18:33:16.242Z,967.45
2018-05-13T18:34:16.171Z,967.47
2018-05-13T18:35:16.102Z,967.45
2018-05-13T18:36:16.082Z,967.44
2018-05-13T18:37:15.964Z,967.46
2018-05-13T18:38:15.896Z,967.47
2018-05-13T18:39:15.953Z,967.47
2018-05-13T18:40:15.754Z,967.46
2018-05-13T18:41:15.686Z,967.49
2018-05-13T18:42:15.660Z,967.50
2018-05-13T18:43:15.546Z,967.56
2018-05-13T18:44:15.477Z,967.56
2018-05-13T18:45:15.407Z,967.56
2018-05-13T18:46:15.344Z,967.56
2018-05-13T18:47:15.267Z,967.54
2018-05-13T18:48:15.204Z,967.52
2018-05-13T18:49:15.130Z,967.56
2018-05-13T18:50:15.072Z,967.56
2018-05-13T18:51:14.992Z,967.61
2018-05-13T18:52:14.917Z,967.62
2018-05-13T18:53:14.853Z,967.63
2018-05-13T18:54:14.782Z,967.62
2018-05-13T18:55:14.707Z,967.63
2018-05-13T18:56:14.649Z,967.63
2018-05-13T18:57:14.568Z,967.64
2018-05-13T18:58:14.503Z,967.66
2018-05-13T18:59:14.451Z,967.65
2018-05-13T19:00:14.359Z,967.67
2018-05-13T19:01:14.288Z,967.65
2018-05-13T19:02:14.225Z,967.68
2018-05-13T19:03:14.149Z,967.69
2018-05-13T19:04:14.077Z,967.72
2018-05-13T19:05:14.007Z,967.72
2018-05-13T19:06:13.937Z,967.75
2018-05-13T19:07:13.869Z,967.72
2018-05-13T19:08:13.796Z,967.73
2018-05-13T19:09:13.731Z,967.73
2018-05-13T19:10:13.656Z,967.75
2018-05-13T19:11:13.586Z,967.80
2018-05-13T19:12:13.571Z,967.77
2018-05-13T19:13:13.444Z,967.81
2018-05-13T19:14:13.381Z,967.81
2018-05-13T19:15:13.307Z,967.85
2018-05-13T19:16:13.235Z,967.83
2018-05-13T19:17:13.165Z,967.86
2018-05-13T19:18:13.092Z,967.84
2018-05-13T19:19:13.026Z,967.89
2018-05-13T19:20:12.970Z,967.89
2018-05-13T19:21:12.883Z,967.89
2018-05-13T19:22:12.810Z,967.92
2018-05-13T19:23:12.742Z,967.93
2018-05-13T19:24:12.671Z,967.94
2018-05-13T19:25:12.602Z,967.94
2018-05-13T19:26:12.527Z,967.95
2018-05-13T19:27:12.457Z,967.98
2018-05-13T19:28:12.388Z,967.97
2018-05-13T19:29:12.319Z,968.01
2018-05-13T19:30:12.249Z,968.00
2018-05-13T19:31:12.182Z,968.01
2018-05-13T19:32:12.110Z,968.03
2018-05-13T19:33:12.034Z,968.05
2018-05-13T19:34:11.962Z,968.02
2018-05-13T19:35:11.894Z,968.04
2018-05-13T19:36:11.835Z,968.07
2018-05-13T19:37:11.762Z,968.14
2018-05-13T19:38:11.681Z,968.11
2018-05-13T19:39:11.611Z,968.09
2018-05-13T19:40:11.540Z,968.10
2018-05-13T19:41:11.468Z,968.10
2018-05-13T19:42:11.397Z,968.11
2018-05-13T19:43:11.334Z,968.12
2018-05-13T19:44:11.255Z,968.13
2018-05-13T19:45:11.185Z,968.11
2018-05-13T19:46:11.114Z,968.14
2018-05-13T19:47:11.049Z,968.15
2018-05-13T19:48:10.973Z,968.12
2018-05-13T19:49:10.913Z,968.13
2018-05-13T19:50:10.835Z,968.15
2018-05-13T19:51:10.760Z,968.10
2018-05-13T19:52:10.690Z,968.16
2018-05-13T19:53:10.619Z,968.13
2018-05-13T19:54:10.620Z,968.14
2018-05-13T19:55:10.476Z,968.11
2018-05-13T19:56:10.412Z,968.07
2018-05-13T19:57:10.336Z,968.09
2018-05-13T19:58:10.266Z,968.09
2018-05-13T19:59:10.192Z,968.09
2018-05-13T20:00:10.122Z,968.06
2018-05-13T20:01:10.051Z,968.06
2018-05-13T20:02:09.990Z,968.05
2018-05-13T20:03:10.006Z,968.07
2018-05-13T20:04:09.839Z,968.04
2018-05-13T20:05:09.766Z,968.05
2018-05-13T20:06:09.716Z,968.08
2018-05-13T20:07:09.624Z,968.05
2018-05-13T20:08:09.561Z,968.06
2018-05-13T20:09:09.505Z,968.03
2018-05-13T20:10:09.410Z,968.06
2018-05-13T20:11:09.342Z,968.02
2018-05-13T20:12:09.270Z,968.02
2018-05-13T20:13:09.202Z,968.02
2018-05-13T20:14:09.137Z,968.00
2018-05-13T20:15:09.065Z,968.01
2018-05-13T20:16:08.985Z,968.03
2018-05-13T20:17:08.916Z,968.03
2018-05-13T20:18:08.845Z,968.06
2018-05-13T20:19:08.773Z,968.10
2018-05-13T20:20:08.701Z,968.06
2018-05-13T20:21:08.632Z,968.08
2018-05-13T20:22:08.582Z,968.05
2018-05-13T20:23:08.495Z,968.07
2018-05-13T20:24:08.418Z,968.06
2018-05-13T20:25:08.347Z,968.00
2018-05-13T20:26:08.274Z,968.02
2018-05-13T20:27:08.204Z,968.03
2018-05-13T20:28:08.141Z,968.02
2018-05-13T20:29:08.065Z,968.04
2018-05-13T20:30:07.993Z,968.03
2018-05-13T20:31:07.920Z,968.00
2018-05-13T20:32:07.850Z,968.02
2018-05-13T20:33:07.777Z,968.05
2018-05-13T20:34:07.713Z,968.04
2018-05-13T20:35:07.636Z,968.05
2018-05-13T20:36:07.564Z,968.10
2018-05-13T20:37:07.493Z,968.07
2018-05-13T20:38:07.420Z,968.06
2018-05-13T20:39:07.355Z,968.09
2018-05-13T20:40:07.291Z,968.07
2018-05-13T20:41:07.207Z,968.08
2018-05-13T20:42:07.141Z,968.07
2018-05-13T20:43:07.084Z,968.08
2018-05-13T20:44:06.993Z,968.08
2018-05-13T20:45:06.922Z,968.09
2018-05-13T20:46:06.851Z,968.07
2018-05-13T20:47:06.790Z,968.05
2018-05-13T20:48:06.707Z,968.06
2018-05-13T20:49:06.640Z,968.05
2018-05-13T20:50:06.564Z,968.06
2018-05-13T20:51:06.493Z,968.03
2018-05-13T20:52:06.427Z,968.03
2018-05-13T20:53:06.357Z,968.03
2018-05-13T20:54:06.288Z,968.01
2018-05-13T20:55:06.208Z,968.03
2018-05-13T20:56:06.138Z,968.07
2018-05-13T20:57:06.066Z,968.07
2018-05-13T20:58:05.997Z,968.06
2018-05-13T20:59:05.927Z,968.07
2018-05-13T21:00:05.855Z,968.10
2018-05-13T21:01:05.780Z,968.08
2018-05-13T21:02:05.708Z,968.11
2018-05-13T21:03:05.641Z,968.10
2018-05-13T21:04:05.576Z,968.13
2018-05-13T21:05:05.496Z,968.16
2018-05-13T21:06:05.427Z,968.12
2018-05-13T21:07:05.357Z,968.11
2018-05-13T21:08:05.286Z,968.13
2018-05-13T21:09:05.213Z,968.12
2018-05-13T21:10:05.139Z,968.13
2018-05-13T21:11:05.070Z,968.12
2018-05-13T21:12:04.996Z,968.10
2018-05-13T21:13:04.933Z,968.12
2018-05-13T21:14:04.852Z,968.09
2018-05-13T21:15:04.784Z,968.15
2018-05-13T21:16:04.795Z,968.08
2018-05-13T21:17:04.641Z,968.10
2018-05-13T21:18:04.568Z,968.15
2018-05-13T21:19:04.499Z,968.15
2018-05-13T21:20:04.429Z,968.16
2018-05-13T21:21:04.356Z,968.19
2018-05-13T21:22:04.285Z,968.18
2018-05-13T21:23:04.216Z,968.20
2018-05-13T21:24:04.144Z,968.21
2018-05-13T21:25:04.072Z,968.22
2018-05-13T21:26:04.009Z,968.24
2018-05-13T21:27:03.927Z,968.23
2018-05-13T21:28:03.854Z,968.21
2018-05-13T21:29:03.784Z,968.23
2018-05-13T21:30:03.789Z,968.18